Where is Igreja da Graça in Portugal?

Igreja da Graça is situated in the region Santarem in Portugal!

Search the name of a city:

Igreja de Matosinhos, Igreja Velha, Igreja de Nossa Senhora das Misericórdias (Colegiada), Igreja Matriz, Igreja Matriz de Gueifães

Here you will find the location of Igreja da Graça on a map.
To see how it currently looks like outside, below are some pictures of the area from online web cameras.
You can also find the distance to the main cities in the region and to cities in the rest of Portugal.

All places in the world called .

new

Where is Igreja da Graça on the map?


Webcams near Igreja da Graça

Vasco Carão > South: Garrocheira, Benavente - Airport.


Vasco Carão > South: Garrocheira, Benavente - Airport - Day time
Current
Vasco Carão > South: Garrocheira, Benavente - Airport - Current

Benavente > North-East: AIrport, METAR: BENAV 180005Z 36004KT 17/14 Q1015.


Benavente > North-East: AIrport, METAR: BENAV 180005Z 36004KT 17/14 Q1015 - Day time
Current
Benavente > North-East: AIrport, METAR: BENAV 180005Z 36004KT 17/14 Q1015 - Current

Sobral > North-East: Pias Longas Aero Club.


Sobral > North-East: Pias Longas Aero Club - Day time
Current
Sobral > North-East: Pias Longas Aero Club - Current

Webcams provided by webcams.travel

Distances

Where is Igreja da Graça relative to other places?

Top 10 cities in Santarem and distance from Igreja da Graça.

City#Populationkmmiles
Santarém12938500
Entroncamento2198873220
Tomar3191684729
Torres Novas4145263119
Samora Correia5141543723
Abrantes6136464830
Ourém7127294729
Rio Maior8120642616
Fátima9117984327
Almeirim101155664

Top 10 cities in Portugal and distance from Igreja da Graça.

City # Populationkmmiles
Lisbon15177986943
Porto2249630212132
Amadora31788567245
Braga4121393259161
Setúbal51171098050
Coimbra610658011169
Queluz71033987245
Funchal8980411041647
Vila Nova de Gaia970810211131
Loures10662306138

Alerts and advice Portugal

Advice and information about traveling and security in Portugal.

With a travel advise, tourists can be informed about security risks during traveling or vacation in a foreign country. Be informed about the risks of kidnapping, armed robbery, bombings, natural disasters or war. Know which areas are unsafe in Portugalo. Be vigilant, or avoid certain areas when on vacation in Portugal.

Alerts and advice



Travel information Portugal

Information on travel documents, visa applications and the cost of a visa.
Contact information of embassies in Portugal.
Different types of travel insurance.

Travel information